Time;durP1;ratioP1;P1;durP2;ratioP2;P2;SDS_P1;SDS_P2;PMS_P1;PMS_P2;Temp;Humidity;BMP_temperature;BMP_pressure;BME280_temperature;BME280_humidity;BME280_pressure;Samples;Min_cycle;Max_cycle;Signal;HPM_P1;HPM_P2
2022/07/09 00:02:19;;;;;;;4.10;2.00;;;;;;;23.63;51.10;99583.84;1766853;80;21880;-62
2022/07/09 00:04:46;;;;;;;4.60;2.12;;;;;;;23.60;51.45;99581.45;1764711;80;21531;-62
2022/07/09 00:07:13;;;;;;;2.58;2.37;;;;;;;23.64;51.63;99581.02;1751596;80;21594;-62
2022/07/09 00:09:40;;;;;;;2.58;1.92;;;;;;;23.65;51.57;99576.48;1752201;80;21514;-62
2022/07/09 00:12:08;;;;;;;2.58;1.95;;;;;;;23.63;51.67;99571.77;1760539;80;21532;-62
2022/07/09 00:14:36;;;;;;;5.30;2.10;;;;;;;23.54;51.64;99569.48;1749080;80;21863;-62
2022/07/09 00:17:03;;;;;;;2.47;1.80;;;;;;;23.54;51.64;99569.48;1748935;80;21613;-62
2022/07/09 00:19:31;;;;;;;2.62;1.77;;;;;;;23.67;51.79;99573.14;1761336;80;20934;-62
2022/07/09 00:21:58;;;;;;;2.55;1.77;;;;;;;23.71;51.75;99567.34;1764167;80;20998;-62
2022/07/09 00:24:25;;;;;;;5.15;2.60;;;;;;;23.77;51.84;99571.25;1758932;80;21510;-62
2022/07/09 00:26:52;;;;;;;3.87;1.90;;;;;;;23.82;51.51;99572.99;1753534;80;21829;-62
2022/07/09 00:29:19;;;;;;;3.92;2.20;;;;;;;23.85;51.39;99573.20;1746535;80;21574;-62
2022/07/09 00:31:46;;;;;;;3.87;2.00;;;;;;;23.81;51.40;99569.11;1757613;80;21529;-63
2022/07/09 00:34:13;;;;;;;4.33;2.00;;;;;;;23.79;51.55;99568.42;1748152;80;21542;-62
2022/07/09 00:36:39;;;;;;;4.58;1.80;;;;;;;23.85;51.67;99567.84;1753042;80;21460;-62
2022/07/09 00:39:06;;;;;;;1.40;1.30;;;;;;;23.90;51.71;99568.20;1753102;80;22012;-62
2022/07/09 00:41:33;;;;;;;2.35;2.05;;;;;;;23.95;51.56;99570.44;1749358;80;21581;-61
2022/07/09 00:44:00;;;;;;;3.98;2.10;;;;;;;24.00;51.49;99563.61;1751921;80;21443;-62
2022/07/09 00:46:26;;;;;;;1.95;1.80;;;;;;;24.02;51.27;99561.61;1758340;80;21459;-62
2022/07/09 00:48:53;;;;;;;3.20;2.40;;;;;;;23.99;51.04;99552.52;1747510;80;21542;-61
2022/07/09 00:51:20;;;;;;;2.20;2.00;;;;;;;23.99;51.04;99552.52;1755811;80;21995;-61
2022/07/09 00:53:47;;;;;;;2.40;1.90;;;;;;;24.02;51.27;99556.24;1750355;80;21617;-62
2022/07/09 00:56:13;;;;;;;2.17;1.72;;;;;;;24.05;51.16;99555.08;1710131;80;21579;-62
2022/07/09 00:58:42;;;;;;;2.10;1.70;;;;;;;24.05;51.16;99555.08;1745554;80;20975;-62
2022/07/09 01:01:10;;;;;;;3.15;1.87;;;;;;;24.04;51.37;99558.27;1749720;80;21542;-62
2022/07/09 01:03:36;;;;;;;2.23;2.03;;;;;;;24.06;51.38;99564.33;1749023;80;22030;-62
2022/07/09 01:06:03;;;;;;;5.90;2.12;;;;;;;24.10;51.40;99563.02;1749510;80;21070;-62
2022/07/09 01:08:30;;;;;;;2.40;2.20;;;;;;;24.11;51.35;99558.52;1754589;80;20991;-61
2022/07/09 01:10:57;;;;;;;3.87;1.77;;;;;;;24.08;51.57;99548.90;1750831;80;21506;-63
2022/07/09 01:13:24;;;;;;;5.22;1.95;;;;;;;24.08;51.57;99548.90;1740602;80;21519;-62
2022/07/09 01:15:51;;;;;;;2.87;1.80;;;;;;;24.08;51.66;99549.41;1727020;80;21913;-62
2022/07/09 01:18:19;;;;;;;3.80;2.10;;;;;;;24.09;51.59;99548.39;1756937;80;21641;-62
2022/07/09 01:20:46;;;;;;;4.85;2.17;;;;;;;24.02;51.58;99544.16;1753901;80;21495;-64
2022/07/09 01:23:13;;;;;;;4.13;1.90;;;;;;;23.95;51.76;99536.37;1740575;80;21253;-62
2022/07/09 01:25:46;;;;;;;2.83;2.05;;;;;;;23.90;51.95;99527.45;1740618;80;21471;-61
2022/07/09 01:28:13;;;;;;;3.60;1.95;;;;;;;23.93;51.97;99533.00;1740629;80;21795;-62
2022/07/09 01:30:40;;;;;;;2.25;2.05;;;;;;;23.93;51.97;99533.00;1746932;80;21420;-61
2022/07/09 01:33:07;;;;;;;2.27;1.92;;;;;;;23.96;51.88;99536.73;1753300;80;21579;-62
2022/07/09 01:35:34;;;;;;;6.53;2.35;;;;;;;23.99;51.97;99539.59;1743266;80;21531;-62
2022/07/09 01:38:01;;;;;;;5.80;2.12;;;;;;;23.96;51.51;99542.09;1756587;80;21484;-61
2022/07/09 01:40:27;;;;;;;2.25;2.05;;;;;;;23.96;51.51;99542.09;1748601;80;21860;-63
2022/07/09 01:42:54;;;;;;;2.80;2.10;;;;;;;23.97;51.67;99544.28;1756759;80;21527;-66
2022/07/09 01:45:21;;;;;;;2.92;2.10;;;;;;;23.95;51.70;99549.80;1747422;80;21649;-62
2022/07/09 01:47:48;;;;;;;1.92;1.82;;;;;;;23.98;51.83;99558.89;1749160;80;20955;-62
2022/07/09 01:50:14;;;;;;;1.72;1.62;;;;;;;24.05;51.83;99557.77;1744096;80;21503;-62
2022/07/09 01:52:41;;;;;;;2.75;2.02;;;;;;;24.10;51.92;99556.30;1749563;80;21824;-62
2022/07/09 01:55:09;;;;;;;4.60;2.10;;;;;;;24.19;51.92;99553.70;1755800;80;21528;-62
2022/07/09 01:57:35;;;;;;;5.10;2.17;;;;;;;24.18;51.77;99554.69;1743430;80;20986;-62
2022/07/09 02:00:03;;;;;;;4.03;2.60;;;;;;;24.15;51.85;99564.39;1738640;80;21475;-63
2022/07/09 02:02:33;;;;;;;3.20;2.83;;;;;;;24.15;51.85;99564.39;1748992;80;21625;-62
2022/07/09 02:04:59;;;;;;;2.65;2.45;;;;;;;24.16;51.51;99572.30;1746489;80;21815;-62
2022/07/09 02:07:26;;;;;;;2.60;2.40;;;;;;;24.15;51.44;99581.84;1748156;80;21583;-62
2022/07/09 02:09:53;;;;;;;3.58;2.40;;;;;;;24.17;51.32;99596.83;1760875;80;21629;-62
2022/07/09 02:12:20;;;;;;;;;;;;;;;24.24;51.52;99628.80;1761966;80;21439;-62
2022/07/09 02:14:47;;;;;;;2.58;2.40;;;;;;;24.32;51.93;99655.36;1750926;80;20445;-62
2022/07/09 02:17:14;;;;;;;4.03;2.50;;;;;;;24.24;51.79;99669.56;1745418;80;21908;-61
2022/07/09 02:19:41;;;;;;;5.28;2.12;;;;;;;24.19;51.90;99670.55;1748893;80;21593;-62
2022/07/09 02:22:07;;;;;;;4.40;2.00;;;;;;;24.10;51.79;99669.09;1750622;80;21042;-62
2022/07/09 02:24:34;;;;;;;3.58;1.82;;;;;;;23.99;51.79;99659.08;1746938;80;21486;-62
2022/07/09 02:27:01;;;;;;;3.52;1.90;;;;;;;24.05;51.68;99657.98;1742536;80;21487;-62
2022/07/09 02:29:28;;;;;;;2.10;1.90;;;;;;;24.19;51.53;99661.98;1741602;80;21805;-62
2022/07/09 02:31:55;;;;;;;2.10;1.80;;;;;;;24.19;51.53;99661.98;1751487;80;21546;-62
2022/07/09 02:34:21;;;;;;;2.13;1.83;;;;;;;24.21;51.51;99660.48;1746568;80;21439;-62
2022/07/09 02:36:48;;;;;;;2.92;1.85;;;;;;;24.17;51.49;99662.63;1750112;80;21432;-62
2022/07/09 02:39:15;;;;;;;6.58;2.00;;;;;;;24.16;51.50;99660.93;1749651;80;21563;-62
2022/07/09 02:41:41;;;;;;;1.70;1.60;;;;;;;24.23;51.53;99653.12;1749708;80;21857;-62
2022/07/09 02:44:08;;;;;;;4.83;2.15;;;;;;;24.35;51.07;99649.19;1746763;80;21489;-62
2022/07/09 02:46:34;;;;;;;2.35;2.05;;;;;;;24.35;51.07;99649.19;1753210;80;21443;-63
2022/07/09 02:49:01;;;;;;;2.27;2.08;;;;;;;24.40;51.12;99642.86;1755695;80;21607;-62
2022/07/09 02:51:28;;;;;;;3.45;2.20;;;;;;;24.43;50.80;99639.00;1753354;80;21728;-62
2022/07/09 02:53:54;;;;;;;2.72;2.17;;;;;;;24.40;51.03;99651.42;1757392;80;21755;-62
2022/07/09 02:56:21;;;;;;;7.70;2.67;;;;;;;24.39;50.80;99650.59;1762016;80;21459;-62
2022/07/09 02:58:48;;;;;;;2.60;2.40;;;;;;;24.48;51.10;99645.60;1754435;80;21578;-62
2022/07/09 03:01:14;;;;;;;5.40;2.00;;;;;;;24.48;51.10;99645.60;1766798;80;21550;-62
2022/07/09 03:03:41;;;;;;;3.87;2.40;;;;;;;24.55;51.04;99658.47;1767158;80;21404;-64
2022/07/09 03:06:08;;;;;;;5.28;2.12;;;;;;;24.52;50.82;99662.30;1763777;80;21791;-62
2022/07/09 03:08:35;;;;;;;2.35;2.00;;;;;;;24.52;50.82;99662.30;1750772;80;21479;-62
2022/07/09 03:11:02;;;;;;;2.02;1.90;;;;;;;24.51;50.69;99671.84;1759744;80;21566;-62
2022/07/09 03:13:29;;;;;;;2.50;1.87;;;;;;;24.47;50.61;99671.31;1754454;80;20947;-63
2022/07/09 03:15:55;;;;;;;3.62;1.90;;;;;;;24.51;50.84;99677.22;1759741;80;21557;-62
2022/07/09 03:18:22;;;;;;;3.40;1.90;;;;;;;24.51;50.99;99673.19;1760642;80;21976;-63
2022/07/09 03:20:50;;;;;;;2.67;2.10;;;;;;;24.54;50.91;99670.20;1766671;80;21415;-62
2022/07/09 03:23:17;;;;;;;3.15;1.70;;;;;;;24.52;50.76;99677.08;1759697;80;20986;-62
2022/07/09 03:25:44;;;;;;;2.72;1.75;;;;;;;24.51;50.84;99674.03;1758391;80;21514;-62
2022/07/09 03:28:11;;;;;;;;;;;;;;;24.49;50.96;99682.75;1759726;80;21507;-62
2022/07/09 03:30:38;;;;;;;2.83;1.70;;;;;;;24.55;51.06;99686.69;1761243;80;21855;-62
2022/07/09 03:33:05;;;;;;;3.40;1.80;;;;;;;24.64;50.91;99678.53;1749143;80;21523;-62
2022/07/09 03:35:31;;;;;;;2.08;1.90;;;;;;;24.67;50.92;99683.58;1758389;80;22121;-62
2022/07/09 03:37:58;;;;;;;2.00;1.90;;;;;;;24.67;50.55;99680.06;1748793;80;20982;-62
2022/07/09 03:40:26;;;;;;;;;;;;;;;24.70;50.44;99685.64;1752545;80;21481;-63
2022/07/09 03:42:53;;;;;;;8.65;2.15;;;;;;;24.68;50.55;99684.45;1751352;80;21736;-62
2022/07/09 03:45:19;;;;;;;3.42;1.65;;;;;;;24.61;50.26;99685.55;1761490;80;21064;-62
2022/07/09 03:47:48;;;;;;;2.87;1.82;;;;;;;24.63;50.44;99680.03;1754225;80;21550;-64
2022/07/09 03:50:14;;;;;;;3.85;1.70;;;;;;;24.65;50.75;99688.78;1760625;80;21542;-62
2022/07/09 03:52:41;;;;;;;5.50;2.00;;;;;;;24.65;50.70;99690.96;1766147;80;21430;-62
2022/07/09 03:55:09;;;;;;;2.75;2.20;;;;;;;24.67;51.13;99684.09;1762370;80;22659;-62
2022/07/09 03:57:35;;;;;;;2.40;1.50;;;;;;;24.65;51.08;99679.38;1761651;80;21562;-62
2022/07/09 04:00:05;;;;;;;4.17;2.02;;;;;;;24.61;50.99;99672.12;1747958;80;21495;-62
2022/07/09 04:02:34;;;;;;;2.92;1.65;;;;;;;24.59;51.26;99666.56;1756079;80;21632;-63
2022/07/09 04:05:01;;;;;;;3.20;1.72;;;;;;;24.67;51.37;99673.34;1751198;80;21592;-65
2022/07/09 04:07:27;;;;;;;2.80;1.85;;;;;;;24.75;51.05;99668.52;1752830;80;21888;-62
2022/07/09 04:09:54;;;;;;;1.90;1.80;;;;;;;24.75;51.05;99668.52;1750605;80;21474;-62
2022/07/09 04:12:21;;;;;;;2.23;1.90;;;;;;;24.73;51.09;99673.22;1755119;80;21584;-62
2022/07/09 04:14:48;;;;;;;2.20;2.00;;;;;;;24.68;50.96;99669.66;1763669;80;21444;-62
2022/07/09 04:17:15;;;;;;;3.90;1.92;;;;;;;24.62;51.23;99666.23;1752290;80;21576;-63
2022/07/09 04:19:42;;;;;;;2.30;2.00;;;;;;;24.59;51.43;99668.74;1751832;80;21790;-62
2022/07/09 04:22:08;;;;;;;1.90;1.80;;;;;;;24.63;51.53;99655.84;1770503;80;21543;-62
2022/07/09 04:24:35;;;;;;;3.25;1.98;;;;;;;24.63;51.53;99655.84;1749226;80;21506;-63
2022/07/09 04:27:02;;;;;;;2.12;1.92;;;;;;;24.62;51.37;99654.14;1758139;80;21411;-62
2022/07/09 04:29:29;;;;;;;2.77;2.02;;;;;;;24.60;51.49;99643.56;1756200;80;21415;-62
2022/07/09 04:31:55;;;;;;;6.40;2.40;;;;;;;24.58;51.92;99628.58;1762445;80;21875;-63
2022/07/09 04:34:22;;;;;;;3.52;2.05;;;;;;;24.58;51.92;99628.58;1766972;80;21135;-62
2022/07/09 04:36:49;;;;;;;2.20;2.00;;;;;;;24.61;51.79;99634.48;1758823;80;21455;-62
2022/07/09 04:39:16;;;;;;;4.12;1.90;;;;;;;24.63;51.74;99627.11;1755506;80;21525;-62
2022/07/09 04:41:43;;;;;;;3.42;2.12;;;;;;;24.63;51.74;99627.11;1762506;80;21437;-62
2022/07/09 04:44:12;;;;;;;2.00;1.87;;;;;;;24.66;51.68;99616.56;1760975;80;21814;-62
2022/07/09 04:46:38;;;;;;;3.60;1.90;;;;;;;24.64;51.93;99610.50;1752099;80;21742;-62
2022/07/09 04:49:05;;;;;;;4.42;2.20;;;;;;;24.75;51.67;99586.05;1766678;80;21495;-62
2022/07/09 04:51:32;;;;;;;2.50;2.30;;;;;;;24.75;51.67;99586.05;1759514;80;21507;-63
2022/07/09 04:53:58;;;;;;;4.37;2.42;;;;;;;24.69;51.43;99575.91;1763056;80;21510;-63
2022/07/09 04:56:25;;;;;;;5.58;2.80;;;;;;;24.63;51.52;99565.29;1764181;80;21486;-62
2022/07/09 04:58:52;;;;;;;2.58;2.12;;;;;;;24.58;51.56;99547.47;1752410;80;21514;-63
2022/07/09 05:01:19;;;;;;;3.55;2.00;;;;;;;24.58;51.56;99547.47;1761525;80;21503;-63
2022/07/09 05:03:46;;;;;;;;;;;;;;;24.61;51.42;99540.92;1757602;80;21416;-64
2022/07/09 05:06:17;;;;;;;2.55;2.22;;;;;;;24.59;51.27;99532.18;1761714;80;20469;-62
2022/07/09 05:08:47;;;;;;;4.12;2.37;;;;;;;24.55;50.94;99525.44;1757107;80;21585;-62
2022/07/09 05:11:14;;;;;;;5.20;2.60;;;;;;;24.55;50.94;99525.44;1751990;80;21530;-63
2022/07/09 05:13:41;;;;;;;5.42;2.37;;;;;;;24.53;51.25;99510.81;1759095;80;21577;-62
2022/07/09 05:16:07;;;;;;;5.83;2.30;;;;;;;24.50;51.68;99507.05;1758785;80;21489;-63
2022/07/09 05:18:35;;;;;;;4.50;2.40;;;;;;;24.54;51.84;99499.05;1762343;80;20982;-62
2022/07/09 05:21:02;;;;;;;3.00;2.10;;;;;;;24.54;51.57;99499.55;1764103;80;21856;-64
2022/07/09 05:23:29;;;;;;;2.93;2.50;;;;;;;24.50;51.61;99500.34;1754305;80;21495;-61
2022/07/09 05:25:57;;;;;;;6.40;2.17;;;;;;;24.53;51.72;99500.06;1746218;80;21517;-61
2022/07/09 05:28:24;;;;;;;3.55;2.65;;;;;;;24.53;51.76;99501.41;1766360;80;21499;-61
2022/07/09 05:30:51;;;;;;;2.72;2.15;;;;;;;24.72;52.18;99512.94;1762987;80;21686;-61
2022/07/09 05:33:19;;;;;;;2.30;2.10;;;;;;;24.72;52.18;99512.94;1755994;80;20993;-61
2022/07/09 05:35:47;;;;;;;;;;;;;;;24.77;52.16;99521.34;1761611;80;21414;-59
2022/07/09 05:38:13;;;;;;;2.93;2.70;;;;;;;24.78;52.24;99522.53;1758011;80;20427;-61
2022/07/09 05:40:40;;;;;;;3.17;2.33;;;;;;;24.81;52.03;99523.57;1755111;80;21420;-61
2022/07/09 05:43:07;;;;;;;2.95;2.40;;;;;;;24.84;51.88;99521.05;1756268;80;21569;-61
2022/07/09 05:45:35;;;;;;;3.40;2.12;;;;;;;24.93;52.12;99513.37;1757112;80;21695;-60
2022/07/09 05:48:03;;;;;;;2.10;2.00;;;;;;;24.98;52.16;99496.77;1762658;80;21408;-60
2022/07/09 05:50:29;;;;;;;2.40;2.20;;;;;;;25.04;52.20;99500.14;1760120;80;21439;-59
2022/07/09 05:52:56;;;;;;;4.28;2.60;;;;;;;24.98;52.34;99504.83;1752986;80;21046;-61
2022/07/09 05:55:23;;;;;;;2.75;2.20;;;;;;;24.94;52.36;99509.69;1751445;80;21651;-61
2022/07/09 05:57:49;;;;;;;3.35;2.40;;;;;;;24.96;52.32;99505.47;1752192;80;21645;-60
2022/07/09 06:00:16;;;;;;;5.73;2.80;;;;;;;24.97;52.59;99501.78;1763355;80;21601;-58
2022/07/09 06:02:43;;;;;;;3.08;2.40;;;;;;;24.99;52.67;99483.13;1763155;80;21112;-65
2022/07/09 06:05:10;;;;;;;4.05;2.55;;;;;;;24.90;52.04;99475.20;1761828;80;21013;-60
2022/07/09 06:07:36;;;;;;;3.40;2.60;;;;;;;24.90;52.04;99475.20;1754972;80;21553;-60
2022/07/09 06:10:04;;;;;;;3.37;2.40;;;;;;;24.81;51.72;99475.17;1751715;80;21806;-60
2022/07/09 06:12:32;;;;;;;5.20;2.75;;;;;;;24.77;51.32;99483.23;1766719;80;21414;-59
2022/07/09 06:14:59;;;;;;;7.10;2.47;;;;;;;24.79;51.13;99490.63;1761731;80;21444;-60
2022/07/09 06:17:25;;;;;;;3.55;2.50;;;;;;;24.81;51.13;99491.30;1767857;80;21526;-59
2022/07/09 06:19:52;;;;;;;3.22;2.02;;;;;;;24.90;50.93;99494.02;1758374;80;21014;-60
2022/07/09 06:22:19;;;;;;;6.15;2.70;;;;;;;24.91;50.67;99487.14;1760488;80;21957;-59
2022/07/09 06:24:45;;;;;;;5.03;2.67;;;;;;;24.91;50.67;99487.14;1765517;80;21041;-62
2022/07/09 06:27:12;;;;;;;2.83;2.52;;;;;;;24.92;50.55;99485.28;1765813;80;21514;-60
2022/07/09 06:29:39;;;;;;;4.00;2.27;;;;;;;24.91;50.50;99490.34;1764681;80;20966;-61
2022/07/09 06:32:07;;;;;;;3.43;2.03;;;;;;;24.89;50.39;99494.53;1753767;80;21549;-60
2022/07/09 06:34:34;;;;;;;5.95;2.27;;;;;;;24.94;50.39;99506.13;1768018;80;21774;-60
2022/07/09 06:37:01;;;;;;;2.98;2.52;;;;;;;24.99;50.21;99511.88;1762381;80;21443;-60
2022/07/09 06:39:47;;;;;;;3.57;2.20;;;;;;;24.99;49.61;99515.91;1762658;80;21489;-59
2022/07/09 06:42:16;;;;;;;4.90;2.42;;;;;;;24.97;49.58;99522.79;1765690;80;21574;-60
2022/07/09 06:44:45;;;;;;;5.15;2.20;;;;;;;25.02;49.46;99524.50;1765327;80;21029;-60
2022/07/09 06:47:13;;;;;;;5.75;2.72;;;;;;;25.10;49.42;99526.89;1763855;80;21848;-61
2022/07/09 06:49:39;;;;;;;3.62;2.25;;;;;;;25.13;49.38;99516.66;1763542;80;21530;-60
2022/07/09 06:52:07;;;;;;;5.67;2.00;;;;;;;25.22;49.68;99504.91;1760515;79;22065;-59
2022/07/09 06:54:35;;;;;;;3.20;2.20;;;;;;;25.33;50.01;99498.39;1767119;80;21092;-59
2022/07/09 06:57:03;;;;;;;2.90;2.60;;;;;;;25.36;50.18;99490.52;1759432;79;21451;-59
2022/07/09 06:59:29;;;;;;;2.58;2.35;;;;;;;25.27;50.72;99479.39;1763012;79;21743;-60
2022/07/09 07:01:56;;;;;;;4.47;2.70;;;;;;;25.24;50.72;99465.75;1760731;79;21597;-59
2022/07/09 07:04:24;;;;;;;3.93;2.43;;;;;;;25.20;50.19;99448.22;1766083;79;21534;-59
2022/07/09 07:06:52;;;;;;;2.20;2.00;;;;;;;25.09;49.98;99460.16;1754948;79;21551;-59
2022/07/09 07:09:21;;;;;;;3.52;1.82;;;;;;;25.06;50.17;99477.95;1753360;80;21522;-59
2022/07/09 07:11:49;;;;;;;7.00;2.20;;;;;;;25.11;50.19;99484.17;1766217;79;21557;-60
2022/07/09 07:14:17;;;;;;;;;;;;;;;25.18;49.90;99473.11;1756382;80;21486;-59
2022/07/09 07:16:44;;;;;;;3.25;2.20;;;;;;;25.15;49.77;99485.05;1760452;79;20480;-59
2022/07/09 07:19:10;;;;;;;1.82;1.72;;;;;;;25.12;49.97;99485.88;1751844;80;21060;-59
2022/07/09 07:21:38;;;;;;;3.30;2.10;;;;;;;25.10;49.96;99482.00;1766840;80;21533;-59
2022/07/09 07:24:06;;;;;;;4.15;2.22;;;;;;;25.11;49.96;99483.70;1763556;80;22021;-59
2022/07/09 07:26:34;;;;;;;3.08;2.00;;;;;;;25.10;50.00;99482.00;1765024;79;21427;-59
2022/07/09 07:29:00;;;;;;;;;;;;;;;25.22;50.18;99482.05;1757621;79;20974;-59
2022/07/09 07:31:34;;;;;;;2.80;2.47;;;;;;;25.30;49.99;99483.95;1759416;80;20448;-60
2022/07/09 07:34:03;;;;;;;2.95;2.02;;;;;;;25.31;49.98;99474.02;1767014;79;21545;-62
2022/07/09 07:36:30;;;;;;;4.53;2.20;;;;;;;25.34;49.89;99472.35;1761001;79;21776;-59
2022/07/09 07:39:02;;;;;;;3.87;2.45;;;;;;;25.34;49.96;99469.66;1753847;79;21590;-60
2022/07/09 07:41:29;;;;;;;4.40;2.00;;;;;;;25.30;50.17;99458.39;1757402;80;21497;-59
2022/07/09 07:43:55;;;;;;;4.10;2.23;;;;;;;25.28;50.52;99457.71;1759991;80;21590;-60
2022/07/09 07:46:24;;;;;;;3.60;2.20;;;;;;;25.33;50.92;99454.52;1757696;80;21541;-60
2022/07/09 07:48:50;;;;;;;2.72;2.52;;;;;;;25.36;51.37;99448.81;1764137;79;21656;-60
2022/07/09 07:51:17;;;;;;;2.40;2.20;;;;;;;25.33;51.10;99453.17;1759492;80;21491;-59
2022/07/09 07:53:44;;;;;;;4.20;2.50;;;;;;;25.38;51.23;99440.06;1759515;80;21542;-60
2022/07/09 07:56:10;;;;;;;2.62;2.05;;;;;;;25.41;51.23;99441.92;1751855;79;21502;-60
2022/07/09 07:58:37;;;;;;;2.25;2.05;;;;;;;25.45;51.70;99443.78;1746034;80;20997;-60
2022/07/09 08:01:04;;;;;;;3.98;2.05;;;;;;;25.56;51.52;99433.17;1745174;80;22023;-60
2022/07/09 08:03:34;;;;;;;2.55;1.82;;;;;;;25.62;51.52;99434.70;1744443;80;21416;-59
2022/07/09 08:06:01;;;;;;;3.92;2.10;;;;;;;25.60;50.84;99429.16;1746021;80;21444;-58
2022/07/09 08:08:28;;;;;;;6.13;2.53;;;;;;;25.60;50.35;99428.64;1732037;80;21069;-59
2022/07/09 08:10:55;;;;;;;3.10;1.95;;;;;;;25.62;50.27;99435.22;1749131;80;21547;-59
2022/07/09 08:13:23;;;;;;;1.62;1.52;;;;;;;25.64;50.24;99431.33;1756546;80;21658;-59
2022/07/09 08:15:50;;;;;;;2.02;1.92;;;;;;;25.74;50.52;99437.05;1748636;80;21584;-60
2022/07/09 08:18:16;;;;;;;4.43;1.77;;;;;;;25.94;50.06;99438.94;1750014;80;21558;-59
2022/07/09 08:20:43;;;;;;;2.87;1.70;;;;;;;26.10;49.15;99434.86;1751884;80;21574;-59
2022/07/09 08:23:10;;;;;;;4.20;1.70;;;;;;;26.15;49.07;99440.58;1744467;80;21594;-59
2022/07/09 08:25:37;;;;;;;2.93;2.03;;;;;;;26.27;48.85;99438.88;1747904;80;21794;-59
2022/07/09 08:28:04;;;;;;;3.00;1.93;;;;;;;26.33;48.42;99436.31;1735708;80;21515;-60
2022/07/09 08:30:31;;;;;;;2.25;1.80;;;;;;;26.34;48.03;99429.92;1745293;80;25722;-59
2022/07/09 08:32:58;;;;;;;2.10;1.63;;;;;;;26.46;48.11;99430.91;1744809;80;21034;-60
2022/07/09 08:35:25;;;;;;;1.95;1.75;;;;;;;26.48;48.12;99427.01;1752240;80;22086;-59
2022/07/09 08:37:53;;;;;;;1.92;1.50;;;;;;;26.54;47.82;99430.86;1743187;80;21789;-59
2022/07/09 08:40:21;;;;;;;3.45;2.20;;;;;;;26.63;47.68;99420.42;1751381;80;21471;-62
2022/07/09 08:42:49;;;;;;;2.10;1.72;;;;;;;26.74;47.64;99426.77;1746461;81;21558;-59
2022/07/09 08:45:17;;;;;;;2.90;1.40;;;;;;;26.83;47.26;99429.45;1742511;80;21579;-59
2022/07/09 08:47:44;;;;;;;2.25;1.57;;;;;;;26.81;46.96;99417.48;1735507;80;21549;-60
2022/07/09 08:50:11;;;;;;;1.93;1.67;;;;;;;26.83;46.89;99423.55;1750626;80;21846;-60
2022/07/09 08:52:40;;;;;;;3.33;1.60;;;;;;;26.89;46.83;99426.05;1750304;80;20978;-60
2022/07/09 08:55:10;;;;;;;1.77;1.67;;;;;;;26.88;46.59;99418.47;1736158;80;21525;-64
2022/07/09 08:57:37;;;;;;;1.77;1.67;;;;;;;26.90;46.46;99416.43;1732333;80;21438;-60
2022/07/09 09:00:05;;;;;;;2.10;1.40;;;;;;;26.90;46.45;99419.13;1733211;80;21533;-59
2022/07/09 09:02:39;;;;;;;2.10;1.37;;;;;;;26.91;46.51;99420.80;1748850;80;21830;-60
2022/07/09 09:05:14;;;;;;;2.12;1.85;;;;;;;26.99;46.92;99419.42;1746929;80;21574;-60
2022/07/09 09:09:49;;;;;;;3.20;1.65;;;;;;;25.79;50.33;99430.16;1791428;78;22643;-60
2022/07/09 09:12:22;;;;;;;2.00;1.20;;;;;;;26.87;46.89;99419.98;1767362;79;21443;-58
2022/07/09 09:14:52;;;;;;;2.17;1.40;;;;;;;26.94;46.27;99415.05;1771613;79;21942;-59
2022/07/09 09:17:20;;;;;;;2.15;1.52;;;;;;;26.91;46.13;99418.61;1760376;79;21419;-59
2022/07/09 09:19:47;;;;;;;3.25;1.42;;;;;;;26.90;46.27;99418.27;1763344;80;21559;-59
2022/07/09 09:22:17;;;;;;;3.10;1.55;;;;;;;26.97;46.32;99412.02;1767304;79;21426;-59
2022/07/09 09:24:50;;;;;;;3.60;1.50;;;;;;;27.02;46.02;99405.24;1766105;79;21414;-59
2022/07/09 09:27:18;;;;;;;1.98;1.55;;;;;;;27.01;46.08;99398.98;1760565;80;21530;-59
2022/07/09 09:29:51;;;;;;;3.00;1.50;;;;;;;27.06;45.92;99397.12;1764300;80;21443;-60
2022/07/09 09:32:24;;;;;;;2.30;1.52;;;;;;;27.11;45.72;99383.42;1768554;80;21555;-60
2022/07/09 09:34:50;;;;;;;1.50;1.40;;;;;;;27.07;45.74;99374.02;1765795;80;21410;-60
2022/07/09 09:37:28;;;;;;;3.70;1.52;;;;;;;27.18;45.62;99383.53;1756771;80;21435;-61
2022/07/09 09:39:55;;;;;;;3.12;1.45;;;;;;;27.24;45.56;99378.79;1769638;79;21989;-59
2022/07/09 09:42:25;;;;;;;3.85;1.77;;;;;;;27.23;45.76;99374.39;1775199;80;21557;-60
2022/07/09 09:44:54;;;;;;;1.60;1.30;;;;;;;27.16;46.21;99373.42;1761053;80;21522;-59
2022/07/09 09:47:24;;;;;;;1.55;1.45;;;;;;;27.18;46.13;99376.30;1769199;80;21597;-60
2022/07/09 09:49:52;;;;;;;3.90;1.50;;;;;;;27.13;45.31;99372.45;1764561;79;21538;-59
2022/07/09 09:52:20;;;;;;;3.52;1.60;;;;;;;26.99;45.38;99366.81;1756374;79;21896;-59
2022/07/09 09:54:48;;;;;;;2.55;1.62;;;;;;;26.91;45.53;99364.66;1768466;80;21438;-59
2022/07/09 09:57:19;;;;;;;3.42;1.50;;;;;;;26.85;45.74;99370.78;1756628;79;21861;-59
2022/07/09 09:59:47;;;;;;;1.95;1.40;;;;;;;26.84;45.97;99375.83;1761884;79;21444;-59
2022/07/09 10:02:14;;;;;;;3.12;1.72;;;;;;;26.83;46.16;99372.81;1751724;79;21474;-59
2022/07/09 10:04:43;;;;;;;1.72;1.62;;;;;;;26.77;46.04;99382.45;1763888;80;22117;-58
2022/07/09 10:07:16;;;;;;;1.98;1.60;;;;;;;26.63;45.68;99373.23;1728167;80;21573;-59
2022/07/09 10:09:54;;;;;;;2.40;1.55;;;;;;;26.50;45.98;99376.97;1749294;80;21455;-59
2022/07/09 10:12:30;;;;;;;;;;;;;;;26.40;46.29;99382.06;1758725;80;21523;-59
2022/07/09 10:14:57;;;;;;;3.80;1.70;;;;;;;26.41;46.43;99385.11;1748710;80;20139;-60
2022/07/09 10:17:26;;;;;;;1.92;1.45;;;;;;;26.28;46.43;99388.02;1746602;80;22199;-60
2022/07/09 10:19:57;;;;;;;1.82;1.60;;;;;;;26.21;47.10;99386.52;1732324;80;21009;-59
2022/07/09 10:22:43;;;;;;;7.10;1.80;;;;;;;26.29;47.08;99393.73;1747132;80;21523;-60
2022/07/09 10:25:14;;;;;;;5.15;1.45;;;;;;;26.34;47.05;99395.41;1749066;80;21014;-59
2022/07/09 10:27:48;;;;;;;1.57;1.47;;;;;;;26.32;46.88;99396.92;1757614;80;21026;-59
2022/07/09 10:30:31;;;;;;;2.00;1.82;;;;;;;26.31;46.63;99392.53;1752128;80;21400;-60
2022/07/09 10:33:06;;;;;;;4.62;1.80;;;;;;;26.31;46.34;99392.53;1747797;80;21519;-60
2022/07/09 10:35:45;;;;;;;2.40;1.77;;;;;;;26.25;46.26;99395.09;1748849;80;20991;-59
2022/07/09 10:38:13;;;;;;;5.53;2.22;;;;;;;26.22;46.54;99394.43;1728769;80;21546;-59
2022/07/09 10:40:46;;;;;;;;;;;;;;;26.18;46.72;99397.14;1701414;82;21605;-61
2022/07/09 10:43:14;;;;;;;3.35;1.92;;;;;;;26.16;47.04;99401.00;1715939;82;21889;-60
2022/07/09 10:45:44;;;;;;;2.55;1.70;;;;;;;26.15;47.06;99403.38;1760207;80;21525;-60
2022/07/09 10:48:15;;;;;;;3.12;1.70;;;;;;;26.21;47.62;99409.42;1755695;80;21581;-61
2022/07/09 10:50:45;;;;;;;2.55;1.70;;;;;;;26.32;48.00;99417.13;1752694;80;21515;-61
2022/07/09 10:53:12;;;;;;;2.92;2.02;;;;;;;26.36;47.53;99414.42;1756039;80;21609;-60
2022/07/09 10:55:44;;;;;;;3.72;1.90;;;;;;;26.31;47.49;99406.52;1745758;80;21951;-61
2022/07/09 10:58:19;;;;;;;2.10;1.80;;;;;;;26.26;47.63;99410.23;1743422;80;21641;-60
2022/07/09 11:01:03;;;;;;;2.52;2.33;;;;;;;26.31;47.78;99404.66;1752089;80;21499;-60
2022/07/09 11:03:31;;;;;;;2.72;2.33;;;;;;;26.28;47.69;99400.98;1752936;80;21393;-60
2022/07/09 11:05:58;;;;;;;3.35;2.00;;;;;;;26.23;47.70;99404.70;1754756;80;21503;-61
2022/07/09 11:08:24;;;;;;;4.05;2.10;;;;;;;26.25;47.44;99408.57;1743048;80;21610;-60
2022/07/09 11:10:52;;;;;;;2.20;2.00;;;;;;;26.27;47.71;99408.72;1751686;80;21411;-60
2022/07/09 11:13:25;;;;;;;3.10;1.82;;;;;;;26.35;47.82;99407.37;1753651;80;21447;-59
2022/07/09 11:15:59;;;;;;;2.27;2.05;;;;;;;26.39;47.63;99406.00;1758288;80;21578;-61
2022/07/09 11:18:28;;;;;;;4.05;2.20;;;;;;;26.37;47.65;99403.12;1746664;80;21554;-61
2022/07/09 11:20:55;;;;;;;3.60;1.50;;;;;;;26.39;47.81;99411.39;1746709;80;22008;-60
2022/07/09 11:23:22;;;;;;;2.97;1.97;;;;;;;26.41;47.64;99412.57;1750391;80;21447;-60
2022/07/09 11:25:48;;;;;;;2.70;1.90;;;;;;;26.40;47.57;99419.80;1750870;80;21835;-60
2022/07/09 11:28:23;;;;;;;3.23;2.13;;;;;;;26.38;47.47;99410.21;1743984;80;21566;-61
2022/07/09 11:31:01;;;;;;;2.17;1.98;;;;;;;26.35;47.47;99414.11;1748417;80;21408;-61
2022/07/09 11:34:17;;;;;;;2.62;2.02;;;;;;;26.38;47.43;99416.95;1752352;80;23567;-59
2022/07/09 11:36:01;;;;;;;2.37;1.87;;;;;;;26.39;47.99;99414.09;1721207;80;21096;-60
2022/07/09 11:38:27;;;;;;;2.10;1.90;;;;;;;26.42;47.88;99416.93;1750077;80;21068;-60
2022/07/09 11:41:02;;;;;;;2.30;2.10;;;;;;;26.42;47.85;99417.77;1750420;80;21140;-60
2022/07/09 11:43:29;;;;;;;2.35;2.08;;;;;;;26.47;47.80;99424.52;1717156;82;21502;-59